createdAt,value
2018-07-19T00:00:55.610Z,80.22
2018-07-19T00:01:55.797Z,80.66
2018-07-19T00:02:56.014Z,81.13
2018-07-19T00:03:56.225Z,81.23
2018-07-19T00:04:56.435Z,81.23
2018-07-19T00:05:56.635Z,81.13
2018-07-19T00:06:56.819Z,81.04
2018-07-19T00:07:57.009Z,81.13
2018-07-19T00:08:57.195Z,81.33
2018-07-19T00:09:57.387Z,81.52
2018-07-19T00:10:57.597Z,81.71
2018-07-19T00:11:57.816Z,81.52
2018-07-19T00:12:58.014Z,82.00
2018-07-19T00:13:58.202Z,82.19
2018-07-19T00:14:58.406Z,82.29
2018-07-19T00:15:58.598Z,82.00
2018-07-19T00:16:58.795Z,81.81
2018-07-19T00:17:59.007Z,81.33
2018-07-19T00:18:59.231Z,81.13
2018-07-19T00:19:59.408Z,81.71
2018-07-19T00:20:59.593Z,81.90
2018-07-19T00:21:59.793Z,82.38
2018-07-19T00:23:00.004Z,83.05
2018-07-19T00:24:00.209Z,82.96
2018-07-19T00:25:00.395Z,82.48
2018-07-19T00:26:00.578Z,82.96
2018-07-19T00:27:00.782Z,82.73
2018-07-19T00:28:00.996Z,82.92
2018-07-19T00:29:01.195Z,83.44
2018-07-19T00:30:01.384Z,83.49
2018-07-19T00:31:01.585Z,83.30
2018-07-19T00:32:01.803Z,84.26
2018-07-19T00:33:02.022Z,83.97
2018-07-19T00:34:02.290Z,84.35
2018-07-19T00:35:02.407Z,84.35
2018-07-19T00:36:02.593Z,84.35
2018-07-19T00:37:02.782Z,84.74
2018-07-19T00:38:02.987Z,84.74
2018-07-19T00:39:03.202Z,85.02
2018-07-19T00:40:03.392Z,85.12
2018-07-19T00:41:03.589Z,84.83
2018-07-19T00:42:03.789Z,85.02
2018-07-19T00:43:03.994Z,84.83
2018-07-19T00:44:04.203Z,84.16
2018-07-19T00:45:04.417Z,84.74
2018-07-19T00:46:04.628Z,84.83
2018-07-19T00:47:04.823Z,84.92
2018-07-19T00:48:05.016Z,84.35
2018-07-19T00:49:05.236Z,84.26
2018-07-19T00:50:05.446Z,84.26
2018-07-19T00:51:05.631Z,83.97
2018-07-19T00:52:05.830Z,84.26
2018-07-19T00:53:06.040Z,83.78
2018-07-19T00:54:06.248Z,83.78
2018-07-19T00:55:06.459Z,83.97
2018-07-19T00:56:06.652Z,84.35
2018-07-19T00:57:06.859Z,84.06
2018-07-19T00:58:07.060Z,84.26
2018-07-19T00:59:07.250Z,84.26
2018-07-19T01:00:07.447Z,84.83
2018-07-19T01:01:07.656Z,84.64
2018-07-19T01:02:07.861Z,85.02
2018-07-19T01:03:08.047Z,85.31
2018-07-19T01:04:08.261Z,84.83
2018-07-19T01:05:08.462Z,85.75
2018-07-19T01:06:08.655Z,85.36
2018-07-19T01:07:08.852Z,85.46
2018-07-19T01:08:09.039Z,86.04
2018-07-19T01:09:09.224Z,85.75
2018-07-19T01:10:09.415Z,85.75
2018-07-19T01:11:09.614Z,85.75
2018-07-19T01:12:09.818Z,85.65
2018-07-19T01:13:10.026Z,85.55
2018-07-19T01:14:10.239Z,85.75
2018-07-19T01:15:10.460Z,85.75
2018-07-19T01:16:10.677Z,86.04
2018-07-19T01:17:10.873Z,85.94
2018-07-19T01:18:11.061Z,85.94
2018-07-19T01:19:11.266Z,86.61
2018-07-19T01:20:11.459Z,86.80
2018-07-19T01:21:11.651Z,86.70
2018-07-19T01:22:11.835Z,86.22
2018-07-19T01:23:12.027Z,86.61
2018-07-19T01:24:12.224Z,86.61
2018-07-19T01:25:12.415Z,86.13
2018-07-19T01:26:12.624Z,86.41
2018-07-19T01:27:12.833Z,86.13
2018-07-19T01:28:13.044Z,86.32
2018-07-19T01:29:13.229Z,86.61
2018-07-19T01:30:13.434Z,86.32
2018-07-19T01:31:13.646Z,86.90
2018-07-19T01:32:13.843Z,86.90
2018-07-19T01:33:14.074Z,87.47
2018-07-19T01:34:14.254Z,87.47
2018-07-19T01:35:14.466Z,86.90
2018-07-19T01:36:14.673Z,87.27
2018-07-19T01:37:14.891Z,87.37
2018-07-19T01:38:15.072Z,87.37
2018-07-19T01:39:15.285Z,87.95
2018-07-19T01:40:15.465Z,87.66
2018-07-19T01:41:15.661Z,87.76
2018-07-19T01:42:15.864Z,87.85
2018-07-19T01:43:16.080Z,87.47
2018-07-19T01:44:16.269Z,87.66
2018-07-19T01:45:16.486Z,87.37
2018-07-19T01:46:16.666Z,88.09
2018-07-19T01:47:16.867Z,87.95
2018-07-19T01:48:17.063Z,88.48
2018-07-19T01:49:17.256Z,88.71
2018-07-19T01:50:17.464Z,88.67
2018-07-19T01:51:17.668Z,88.95
2018-07-19T01:52:17.860Z,88.95
2018-07-19T01:53:18.058Z,89.15
2018-07-19T01:54:18.239Z,89.15
2018-07-19T01:55:18.473Z,88.86
2018-07-19T01:56:18.685Z,89.34
2018-07-19T01:57:18.889Z,89.43
2018-07-19T01:58:19.095Z,89.05
2018-07-19T01:59:19.299Z,89.15
2018-07-19T02:00:19.495Z,89.15
2018-07-19T02:01:19.691Z,89.72
2018-07-19T02:02:19.875Z,89.05
2018-07-19T02:03:20.073Z,89.91
2018-07-19T02:04:20.284Z,89.72
2018-07-19T02:05:20.482Z,90.01
2018-07-19T02:06:20.674Z,90.30
2018-07-19T02:07:20.883Z,90.01
2018-07-19T02:08:21.123Z,90.10
2018-07-19T02:09:21.266Z,90.30
2018-07-19T02:10:21.473Z,90.30
2018-07-19T02:11:21.685Z,90.39
2018-07-19T02:12:21.868Z,90.20
2018-07-19T02:13:22.123Z,90.48
2018-07-19T02:14:22.199Z,90.58
2018-07-19T02:15:22.403Z,90.58
2018-07-19T02:16:22.614Z,91.20
2018-07-19T02:17:22.797Z,91.30
2018-07-19T02:18:23.021Z,90.92
2018-07-19T02:19:23.213Z,90.92
2018-07-19T02:20:23.419Z,91.20
2018-07-19T02:21:23.598Z,91.68
2018-07-19T02:22:23.785Z,91.30
2018-07-19T02:23:24.021Z,91.59
2018-07-19T02:24:24.178Z,91.30
2018-07-19T02:25:24.391Z,91.30
2018-07-19T02:26:24.579Z,91.68
2018-07-19T02:27:24.765Z,91.78
2018-07-19T02:28:24.967Z,91.59
2018-07-19T02:29:25.154Z,91.78
2018-07-19T02:30:25.343Z,92.07
2018-07-19T02:31:25.569Z,91.88
2018-07-19T02:32:25.788Z,91.88
2018-07-19T02:33:25.984Z,92.07
2018-07-19T02:34:26.189Z,92.25
2018-07-19T02:35:26.403Z,92.07
2018-07-19T02:36:26.587Z,92.54
2018-07-19T02:37:26.782Z,92.25
2018-07-19T02:38:26.990Z,92.45
2018-07-19T02:39:27.208Z,92.45
2018-07-19T02:40:27.413Z,92.25
2018-07-19T02:41:27.604Z,92.16
2018-07-19T02:42:27.797Z,91.97
2018-07-19T02:43:28.000Z,92.25
2018-07-19T02:44:28.205Z,92.54
2018-07-19T02:45:28.458Z,92.83
2018-07-19T02:46:28.662Z,92.79
2018-07-19T02:47:28.847Z,92.88
2018-07-19T02:48:29.043Z,92.69
2018-07-19T02:49:29.238Z,93.45
2018-07-19T02:50:29.431Z,93.55
2018-07-19T02:51:29.615Z,94.12
2018-07-19T02:52:29.819Z,94.17
2018-07-19T02:53:30.008Z,94.31
2018-07-19T02:54:30.213Z,94.12
2018-07-19T02:55:30.426Z,94.12
2018-07-19T02:56:30.637Z,93.84
2018-07-19T02:57:30.825Z,94.12
2018-07-19T02:58:31.033Z,94.07
2018-07-19T02:59:31.219Z,94.60
2018-07-19T03:00:31.429Z,94.02
2018-07-19T03:01:31.632Z,94.12
2018-07-19T03:02:31.814Z,94.22
2018-07-19T03:03:32.035Z,93.74
2018-07-19T03:04:32.244Z,94.79
2018-07-19T03:05:32.451Z,94.51
2018-07-19T03:06:32.721Z,94.31
2018-07-19T03:07:32.863Z,94.98
2018-07-19T03:08:33.080Z,94.70
2018-07-19T03:09:33.268Z,94.70
2018-07-19T03:10:33.485Z,94.89
2018-07-19T03:11:33.686Z,95.56
2018-07-19T03:12:33.883Z,95.65
2018-07-19T03:13:34.088Z,95.84
2018-07-19T03:14:34.295Z,95.56
2018-07-19T03:15:34.507Z,95.84
2018-07-19T03:16:34.703Z,95.84
2018-07-19T03:17:34.894Z,95.84
2018-07-19T03:18:35.104Z,95.84
2018-07-19T03:19:35.311Z,96.22
2018-07-19T03:20:35.520Z,96.13
2018-07-19T03:21:35.730Z,96.32
2018-07-19T03:22:35.980Z,96.32
2018-07-19T03:23:36.161Z,96.13
2018-07-19T03:24:36.356Z,96.42
2018-07-19T03:25:36.546Z,96.99
2018-07-19T03:26:36.747Z,96.80
2018-07-19T03:27:36.955Z,96.03
2018-07-19T03:28:37.179Z,96.22
2018-07-19T03:29:37.367Z,95.84
2018-07-19T03:30:37.559Z,96.13
2018-07-19T03:31:37.749Z,96.13
2018-07-19T03:32:37.951Z,96.42
2018-07-19T03:33:38.146Z,96.32
2018-07-19T03:34:38.351Z,95.84
2018-07-19T03:35:38.546Z,95.65
2018-07-19T03:36:38.735Z,95.56
2018-07-19T03:37:38.921Z,95.46
2018-07-19T03:38:39.132Z,96.13
2018-07-19T03:39:39.328Z,96.42
2018-07-19T03:40:39.522Z,96.03
2018-07-19T03:41:39.734Z,96.13
2018-07-19T03:42:39.945Z,96.13
2018-07-19T03:43:40.130Z,96.13
2018-07-19T03:44:40.314Z,96.22
2018-07-19T03:45:40.514Z,95.84
2018-07-19T03:46:40.723Z,95.65
2018-07-19T03:47:40.948Z,95.56
2018-07-19T03:48:41.161Z,95.27
2018-07-19T03:49:41.362Z,95.27
2018-07-19T03:50:41.570Z,95.27
2018-07-19T03:51:41.893Z,94.51
2018-07-19T03:52:41.978Z,94.51
2018-07-19T03:53:42.195Z,94.60
2018-07-19T03:54:42.390Z,94.60
2018-07-19T03:55:42.605Z,94.89
2018-07-19T03:56:42.813Z,94.31
2018-07-19T03:57:43.013Z,94.55
2018-07-19T03:58:43.219Z,94.17
2018-07-19T03:59:43.410Z,93.93
2018-07-19T04:00:43.606Z,94.17
2018-07-19T04:01:43.794Z,94.17
2018-07-19T04:02:44.106Z,94.17
2018-07-19T04:03:44.169Z,94.26
2018-07-19T04:04:44.378Z,94.17
2018-07-19T04:05:44.582Z,94.26
2018-07-19T04:06:44.764Z,94.26
2018-07-19T04:07:44.974Z,94.17
2018-07-19T04:08:45.173Z,93.88
2018-07-19T04:09:45.385Z,94.07
2018-07-19T04:10:45.593Z,94.17
2018-07-19T04:11:45.783Z,94.36
2018-07-19T04:12:45.992Z,94.36
2018-07-19T04:13:46.217Z,94.17
2018-07-19T04:14:46.411Z,94.17
2018-07-19T04:15:46.600Z,94.17
2018-07-19T04:16:46.782Z,94.17
2018-07-19T04:17:46.999Z,93.88
2018-07-19T04:18:47.195Z,94.26
2018-07-19T04:19:47.390Z,93.88
2018-07-19T04:20:47.583Z,93.21
2018-07-19T04:21:47.782Z,93.40
2018-07-19T04:22:47.972Z,93.21
2018-07-19T04:23:48.173Z,93.60
2018-07-19T04:24:48.363Z,93.60
2018-07-19T04:25:48.552Z,93.35
2018-07-19T04:26:48.752Z,91.58
2018-07-19T04:27:48.947Z,89.14
2018-07-19T04:28:49.133Z,86.31
2018-07-19T04:29:49.324Z,84.44
2018-07-19T04:30:49.536Z,82.21
2018-07-19T04:31:49.759Z,79.09
2018-07-19T04:32:49.966Z,77.75
2018-07-19T04:33:50.151Z,76.88
2018-07-19T04:34:50.351Z,76.15
2018-07-19T04:35:50.546Z,75.52
2018-07-19T04:36:50.757Z,74.85
2018-07-19T04:37:50.946Z,74.21
2018-07-19T04:38:51.156Z,73.41
2018-07-19T04:39:51.369Z,73.98
2018-07-19T04:40:51.583Z,72.52
2018-07-19T04:41:51.764Z,70.88
2018-07-19T04:42:51.976Z,71.04
2018-07-19T04:43:52.189Z,72.09
2018-07-19T04:44:52.397Z,70.84
2018-07-19T04:45:52.581Z,71.33
2018-07-19T04:46:52.794Z,70.98
2018-07-19T04:47:52.988Z,70.50
2018-07-19T04:48:53.186Z,69.47
2018-07-19T04:49:53.390Z,67.97
2018-07-19T04:50:53.589Z,67.19
2018-07-19T04:51:53.784Z,67.45
2018-07-19T04:52:54.013Z,68.51
2018-07-19T04:53:54.215Z,68.16
2018-07-19T04:54:54.423Z,67.03
2018-07-19T04:55:54.635Z,65.78
2018-07-19T04:56:54.872Z,65.78
2018-07-19T04:57:55.096Z,65.69
2018-07-19T04:58:55.291Z,65.98
2018-07-19T04:59:55.499Z,64.56
2018-07-19T05:00:55.693Z,64.11
2018-07-19T05:01:55.910Z,63.60
2018-07-19T05:02:56.112Z,64.66
2018-07-19T05:03:56.306Z,63.89
2018-07-19T05:04:56.564Z,64.11
2018-07-19T05:05:56.736Z,63.63
2018-07-19T05:06:56.922Z,63.89
2018-07-19T05:07:57.123Z,64.18
2018-07-19T05:08:57.315Z,63.54
2018-07-19T05:09:57.536Z,63.82
2018-07-19T05:10:57.717Z,62.41
2018-07-19T05:11:57.915Z,62.05
2018-07-19T05:12:58.127Z,60.93
2018-07-19T05:13:58.354Z,60.64
2018-07-19T05:14:58.542Z,60.83
2018-07-19T05:15:58.746Z,61.38
2018-07-19T05:16:58.951Z,61.38
2018-07-19T05:17:59.151Z,62.15
2018-07-19T05:18:59.367Z,62.15
2018-07-19T05:19:59.583Z,62.15
2018-07-19T05:20:59.777Z,62.31
2018-07-19T05:21:59.987Z,62.86
2018-07-19T05:23:00.249Z,62.89
2018-07-19T05:24:00.325Z,62.79
2018-07-19T05:25:00.521Z,61.83
2018-07-19T05:26:00.742Z,63.02
2018-07-19T05:27:00.950Z,63.95
2018-07-19T05:28:01.150Z,65.05
2018-07-19T05:29:01.367Z,63.92
2018-07-19T05:30:01.577Z,63.82
2018-07-19T05:31:01.774Z,63.44
2018-07-19T05:32:01.983Z,63.06
2018-07-19T05:33:02.196Z,62.57
2018-07-19T05:34:02.481Z,62.86
2018-07-19T05:35:02.580Z,62.86
2018-07-19T05:36:02.777Z,62.38
2018-07-19T05:37:02.980Z,61.57
2018-07-19T05:38:03.163Z,60.44
2018-07-19T05:39:03.374Z,59.86
2018-07-19T05:40:03.593Z,59.83
2018-07-19T05:41:03.794Z,60.61
2018-07-19T05:42:04.028Z,60.06
2018-07-19T05:43:04.213Z,60.35
2018-07-19T05:44:04.427Z,60.35
2018-07-19T05:45:04.625Z,58.95
2018-07-19T05:46:04.837Z,58.06
2018-07-19T05:47:05.034Z,59.83
2018-07-19T05:48:05.232Z,61.35
2018-07-19T05:49:05.424Z,61.41
2018-07-19T05:50:05.629Z,60.44
2018-07-19T05:51:05.844Z,60.28
2018-07-19T05:52:06.145Z,59.12
2018-07-19T05:53:06.201Z,57.89
2018-07-19T05:54:06.412Z,58.86
2018-07-19T05:55:06.616Z,58.15
2018-07-19T05:56:06.808Z,58.54
2018-07-19T05:57:06.997Z,58.90
2018-07-19T05:58:07.234Z,58.80
2018-07-19T05:59:07.408Z,59.19
2018-07-19T06:00:07.612Z,58.83
2018-07-19T06:01:07.804Z,58.83
2018-07-19T06:02:08.023Z,58.73
2018-07-19T06:03:08.278Z,58.73
2018-07-19T06:04:08.394Z,58.73
2018-07-19T06:05:08.573Z,57.34
2018-07-19T06:06:08.789Z,57.05
2018-07-19T06:07:08.967Z,56.70
2018-07-19T06:08:09.155Z,55.85
2018-07-19T06:09:09.353Z,55.20
2018-07-19T06:10:09.577Z,54.52
2018-07-19T06:11:09.785Z,55.73
2018-07-19T06:12:10.011Z,56.02
2018-07-19T06:13:10.204Z,55.17
2018-07-19T06:14:10.415Z,55.98
2018-07-19T06:15:10.632Z,53.61
2018-07-19T06:16:10.894Z,52.37
2018-07-19T06:17:11.061Z,51.40
2018-07-19T06:18:11.259Z,50.48
2018-07-19T06:19:11.474Z,50.19
2018-07-19T06:20:11.677Z,51.18
2018-07-19T06:21:11.903Z,51.96
2018-07-19T06:22:12.126Z,51.86
2018-07-19T06:23:12.339Z,52.15
2018-07-19T06:24:12.545Z,53.39
2018-07-19T06:25:12.763Z,53.45
2018-07-19T06:26:12.965Z,53.65
2018-07-19T06:27:13.165Z,53.02
2018-07-19T06:28:13.368Z,52.66
2018-07-19T06:29:13.565Z,51.23
2018-07-19T06:30:13.783Z,50.29
2018-07-19T06:31:13.981Z,50.16
2018-07-19T06:32:14.173Z,51.62
2018-07-19T06:33:14.389Z,51.50
2018-07-19T06:34:14.603Z,51.69
2018-07-19T06:35:14.802Z,51.21
2018-07-19T06:36:15.021Z,51.23
2018-07-19T06:37:15.221Z,51.53
2018-07-19T06:38:15.438Z,51.14
2018-07-19T06:39:15.639Z,49.90
2018-07-19T06:40:15.848Z,49.99
2018-07-19T06:41:16.182Z,49.15
2018-07-19T06:42:16.284Z,49.34
2018-07-19T06:43:16.474Z,49.15
2018-07-19T06:44:16.691Z,48.95
2018-07-19T06:45:16.895Z,49.24
2018-07-19T06:46:17.113Z,48.39
2018-07-19T06:47:17.342Z,47.74
2018-07-19T06:48:17.544Z,48.73
2018-07-19T06:49:17.781Z,49.97
2018-07-19T06:50:17.954Z,49.90
2018-07-19T06:51:18.152Z,49.71
2018-07-19T06:52:18.365Z,48.85
2018-07-19T06:53:18.585Z,48.49
2018-07-19T06:54:18.796Z,47.74
2018-07-19T06:55:19.015Z,47.96
2018-07-19T06:56:19.210Z,48.44
2018-07-19T06:57:19.408Z,49.41
2018-07-19T06:58:19.616Z,49.68
2018-07-19T06:59:19.814Z,49.12
2018-07-19T07:00:20.002Z,48.35
2018-07-19T07:01:20.209Z,49.24
2018-07-19T07:02:20.434Z,48.37
2018-07-19T07:03:20.651Z,47.98
2018-07-19T07:04:20.840Z,48.27
2018-07-19T07:05:21.039Z,47.83
2018-07-19T07:06:21.224Z,46.35
2018-07-19T07:07:21.418Z,46.25
2018-07-19T07:08:21.616Z,46.25
2018-07-19T07:09:21.811Z,47.23
2018-07-19T07:10:22.007Z,47.61
2018-07-19T07:11:22.227Z,47.81
2018-07-19T07:12:22.451Z,48.44
2018-07-19T07:13:22.659Z,48.27
2018-07-19T07:14:22.876Z,44.67
2018-07-19T07:15:23.084Z,43.23
2018-07-19T07:16:23.307Z,41.89
2018-07-19T07:17:23.528Z,40.09
2018-07-19T07:18:23.743Z,41.35
2018-07-19T07:19:23.958Z,41.25
2018-07-19T07:20:24.182Z,40.76
2018-07-19T07:21:24.388Z,39.41
2018-07-19T07:22:24.614Z,39.59
2018-07-19T07:23:24.804Z,39.86
2018-07-19T07:24:25.010Z,38.73
2018-07-19T07:25:25.219Z,38.73
2018-07-19T07:26:25.423Z,37.71
2018-07-19T07:27:25.655Z,36.75
2018-07-19T07:28:25.968Z,37.21
2018-07-19T07:29:26.096Z,37.73
2018-07-19T07:30:26.355Z,35.89
2018-07-19T07:31:26.511Z,35.60
2018-07-19T07:32:26.748Z,34.60
2018-07-19T07:33:26.947Z,35.27
2018-07-19T07:34:27.155Z,36.23
2018-07-19T07:35:27.371Z,36.80
2018-07-19T07:36:27.578Z,36.88
2018-07-19T07:37:27.770Z,37.05
2018-07-19T07:38:27.973Z,38.71
2018-07-19T07:39:28.195Z,36.52
2018-07-19T07:40:28.424Z,36.65
2018-07-19T07:41:28.644Z,35.89
2018-07-19T07:42:28.847Z,33.79
2018-07-19T07:43:29.038Z,33.56
2018-07-19T07:44:29.254Z,36.92
2018-07-19T07:45:29.462Z,37.91
2018-07-19T07:46:29.682Z,37.95
2018-07-19T07:47:29.877Z,37.65
2018-07-19T07:48:30.115Z,37.12
2018-07-19T07:49:30.345Z,37.70
2018-07-19T07:50:30.567Z,38.89
2018-07-19T07:51:30.830Z,42.27
2018-07-19T07:52:30.944Z,42.21
2018-07-19T07:53:31.151Z,38.20
2018-07-19T07:54:31.369Z,36.99
2018-07-19T07:55:31.619Z,37.60
2018-07-19T07:56:31.825Z,36.58
2018-07-19T07:57:32.063Z,36.30
2018-07-19T07:58:32.300Z,37.52
2018-07-19T07:59:32.525Z,36.99
2018-07-19T08:00:32.779Z,34.92
2018-07-19T08:01:32.991Z,37.95
2018-07-19T08:02:33.223Z,39.37
2018-07-19T08:03:33.451Z,39.26
2018-07-19T08:04:33.674Z,39.45
2018-07-19T08:05:33.907Z,36.49
2018-07-19T08:06:34.135Z,34.61
2018-07-19T08:07:34.383Z,35.28
2018-07-19T08:08:34.614Z,33.92
2018-07-19T08:09:34.841Z,37.16
2018-07-19T08:10:35.073Z,35.53
2018-07-19T08:11:35.218Z,33.28
2018-07-19T08:12:35.458Z,31.38
2018-07-19T08:13:35.663Z,32.16
2018-07-19T08:14:35.881Z,29.42
2018-07-19T08:15:36.327Z,31.78
2018-07-19T08:16:36.326Z,32.01
2018-07-19T08:17:36.549Z,31.44
2018-07-19T08:18:36.764Z,29.68
2018-07-19T08:19:37.039Z,30.22
2018-07-19T08:20:37.275Z,30.12
2018-07-19T08:21:37.464Z,29.48
2018-07-19T08:22:37.679Z,29.58
2018-07-19T08:23:37.890Z,30.02
2018-07-19T08:24:38.104Z,32.57
2018-07-19T08:25:38.324Z,34.92
2018-07-19T08:26:38.554Z,36.75
2018-07-19T08:27:38.768Z,37.35
2018-07-19T08:28:38.981Z,34.63
2018-07-19T08:29:39.204Z,32.99
2018-07-19T08:30:39.418Z,32.94
2018-07-19T08:31:39.630Z,30.32
2018-07-19T08:32:39.832Z,30.12
2018-07-19T08:33:40.048Z,29.63
2018-07-19T08:34:40.286Z,28.93
2018-07-19T08:35:40.502Z,29.75
2018-07-19T08:36:40.724Z,29.42
2018-07-19T08:37:40.943Z,29.63
2018-07-19T08:38:41.149Z,29.81
2018-07-19T08:39:41.351Z,31.73
2018-07-19T08:40:41.564Z,33.86
2018-07-19T08:41:41.774Z,34.03
2018-07-19T08:42:42.098Z,33.11
2018-07-19T08:43:42.184Z,31.09
2018-07-19T08:44:42.395Z,31.30
2018-07-19T08:45:42.607Z,31.67
2018-07-19T08:46:42.818Z,32.11
2018-07-19T08:47:43.043Z,31.23
2018-07-19T08:48:43.267Z,31.13
2018-07-19T08:49:43.469Z,31.23
2018-07-19T08:50:43.669Z,31.63
2018-07-19T08:51:43.979Z,34.72
2018-07-19T08:52:44.104Z,35.50
2018-07-19T08:53:44.339Z,33.96
2018-07-19T08:54:44.553Z,32.84
2018-07-19T08:55:44.771Z,31.87
2018-07-19T08:56:45.008Z,30.65
2018-07-19T08:57:45.178Z,30.40
2018-07-19T08:58:45.385Z,29.13
2018-07-19T08:59:45.584Z,30.08
2018-07-19T09:00:45.789Z,30.86
2018-07-19T09:01:45.982Z,30.38
2018-07-19T09:02:46.196Z,29.84
2018-07-19T09:03:46.421Z,28.88
2018-07-19T09:04:46.636Z,29.11
2018-07-19T09:05:46.836Z,27.39
2018-07-19T09:06:47.064Z,27.61
2018-07-19T09:07:47.281Z,27.70
2018-07-19T09:08:47.561Z,28.29
2018-07-19T09:09:47.694Z,28.72
2018-07-19T09:10:47.922Z,28.06
2018-07-19T09:11:48.122Z,27.53
2018-07-19T09:12:48.333Z,26.65
2018-07-19T09:13:48.554Z,25.13
2018-07-19T09:14:48.767Z,24.07
2018-07-19T09:15:49.013Z,23.75
2018-07-19T09:16:49.231Z,23.86
2018-07-19T09:17:49.438Z,23.68
2018-07-19T09:18:49.666Z,23.95
2018-07-19T09:19:49.898Z,24.77
2018-07-19T09:20:50.193Z,26.67
2018-07-19T09:21:50.325Z,26.51
2018-07-19T09:22:50.557Z,28.26
2018-07-19T09:23:50.743Z,30.22
2018-07-19T09:24:50.952Z,31.33
2018-07-19T09:25:51.148Z,29.79
2018-07-19T09:26:51.382Z,30.65
2018-07-19T09:27:51.600Z,29.22
2018-07-19T09:28:51.823Z,29.72
2018-07-19T09:29:52.046Z,31.24
2018-07-19T09:30:52.262Z,33.54
2018-07-19T09:31:52.490Z,33.46
2018-07-19T09:32:52.728Z,31.38
2018-07-19T09:33:52.933Z,30.60
2018-07-19T09:34:53.145Z,29.67
2018-07-19T09:35:53.347Z,28.22
2018-07-19T09:36:53.543Z,29.18
2018-07-19T09:37:53.768Z,30.03
2018-07-19T09:38:53.987Z,31.79
2018-07-19T09:39:54.238Z,31.10
2018-07-19T09:40:54.443Z,31.67
2018-07-19T09:41:54.698Z,31.96
2018-07-19T09:42:54.885Z,31.61
2018-07-19T09:43:55.109Z,32.42
2018-07-19T09:44:55.320Z,31.25
2018-07-19T09:45:55.532Z,30.44
2018-07-19T09:46:55.742Z,30.18
2018-07-19T09:47:55.944Z,28.16
2018-07-19T09:48:56.219Z,28.36
2018-07-19T09:49:56.387Z,28.36
2018-07-19T09:50:56.598Z,29.60
2018-07-19T09:51:56.809Z,29.85
2018-07-19T09:52:57.017Z,29.77
2018-07-19T09:53:57.225Z,29.38
2018-07-19T09:54:57.429Z,29.57
2018-07-19T09:55:57.717Z,29.57
2018-07-19T09:56:57.852Z,28.42
2018-07-19T09:57:58.071Z,28.82
2018-07-19T09:58:58.305Z,28.13
2018-07-19T09:59:58.523Z,28.71
2018-07-19T10:00:58.743Z,27.58
2018-07-19T10:01:58.966Z,26.23
2018-07-19T10:02:59.174Z,27.38
2018-07-19T10:03:59.392Z,28.25
2018-07-19T10:04:59.605Z,27.94
2018-07-19T10:05:59.820Z,27.86
2018-07-19T10:07:00.133Z,28.23
2018-07-19T10:08:00.221Z,27.39
2018-07-19T10:09:00.445Z,28.11
2018-07-19T10:10:00.693Z,28.54
2018-07-19T10:11:00.873Z,26.53
2018-07-19T10:12:01.150Z,25.67
2018-07-19T10:13:01.315Z,26.59
2018-07-19T10:14:01.535Z,27.75
2018-07-19T10:15:01.733Z,27.55
2018-07-19T10:16:01.963Z,27.58
2018-07-19T10:17:02.157Z,27.31
2018-07-19T10:18:02.367Z,26.43
2018-07-19T10:19:02.587Z,26.23
2018-07-19T10:20:02.801Z,27.42
2018-07-19T10:21:03.007Z,26.45
2018-07-19T10:22:03.225Z,25.50
2018-07-19T10:23:03.444Z,24.82
2018-07-19T10:24:03.642Z,25.32
2018-07-19T10:25:03.855Z,24.33
2018-07-19T10:26:04.069Z,23.80
2018-07-19T10:27:04.278Z,25.44
2018-07-19T10:28:04.491Z,28.32
2018-07-19T10:29:04.722Z,28.61
2018-07-19T10:30:04.923Z,29.06
2018-07-19T10:31:05.151Z,28.59
2018-07-19T10:32:05.440Z,28.52
2018-07-19T10:33:05.571Z,28.63
2018-07-19T10:34:05.820Z,29.00
2018-07-19T10:35:05.980Z,29.07
2018-07-19T10:36:06.178Z,28.59
2018-07-19T10:37:06.401Z,28.57
2018-07-19T10:38:06.642Z,28.97
2018-07-19T10:39:06.864Z,29.30
2018-07-19T10:40:07.068Z,29.57
2018-07-19T10:41:07.264Z,29.41
2018-07-19T10:42:07.463Z,28.32
2018-07-19T10:43:07.693Z,28.43
2018-07-19T10:44:07.854Z,28.49
2018-07-19T10:45:08.073Z,29.32
2018-07-19T10:46:08.307Z,29.74
2018-07-19T10:47:08.505Z,32.40
2018-07-19T10:48:08.723Z,33.86
2018-07-19T10:49:08.931Z,31.85
2018-07-19T10:50:09.137Z,30.31
2018-07-19T10:51:09.336Z,31.38
2018-07-19T10:52:09.555Z,31.16
2018-07-19T10:53:09.770Z,31.92
2018-07-19T10:54:09.979Z,31.71
2018-07-19T10:55:10.186Z,32.29
2018-07-19T10:56:10.434Z,33.54
2018-07-19T10:57:10.642Z,33.33
2018-07-19T10:58:10.868Z,33.34
2018-07-19T10:59:11.069Z,33.36
2018-07-19T11:00:11.294Z,32.49
2018-07-19T11:01:11.488Z,32.89
2018-07-19T11:02:11.699Z,33.39
2018-07-19T11:03:11.916Z,32.97
2018-07-19T11:04:12.124Z,32.97
2018-07-19T11:05:12.366Z,32.79
2018-07-19T11:06:12.577Z,32.78
2018-07-19T11:07:12.795Z,33.36
2018-07-19T11:08:12.987Z,33.93
2018-07-19T11:09:13.192Z,32.87
2018-07-19T11:10:13.404Z,33.85
2018-07-19T11:11:13.621Z,33.33
2018-07-19T11:12:13.836Z,34.17
2018-07-19T11:13:14.056Z,35.24
2018-07-19T11:14:14.273Z,35.35
2018-07-19T11:15:14.472Z,35.86
2018-07-19T11:16:14.686Z,33.73
2018-07-19T11:17:14.900Z,33.09
2018-07-19T11:18:15.098Z,32.99
2018-07-19T11:19:15.317Z,32.89
2018-07-19T11:20:15.532Z,32.97
2018-07-19T11:21:15.748Z,32.60
2018-07-19T11:22:15.958Z,33.29
2018-07-19T11:23:16.191Z,32.92
2018-07-19T11:24:16.406Z,32.13
2018-07-19T11:25:16.622Z,33.67
2018-07-19T11:26:16.822Z,33.07
2018-07-19T11:27:17.037Z,33.86
2018-07-19T11:28:17.224Z,33.25
2018-07-19T11:29:17.423Z,33.85
2018-07-19T11:30:17.633Z,32.97
2018-07-19T11:31:17.832Z,34.55
2018-07-19T11:32:18.125Z,34.64
2018-07-19T11:33:18.274Z,33.78
2018-07-19T11:34:18.472Z,33.49
2018-07-19T11:35:18.755Z,33.29
2018-07-19T11:36:18.912Z,32.23
2018-07-19T11:37:19.120Z,32.20
2018-07-19T11:38:19.323Z,33.77
2018-07-19T11:39:19.534Z,33.58
2018-07-19T11:40:19.755Z,34.14
2018-07-19T11:41:19.949Z,35.03
2018-07-19T11:42:20.172Z,33.96
2018-07-19T11:43:20.384Z,33.23
2018-07-19T11:44:20.580Z,34.42
2018-07-19T11:45:20.798Z,34.52
2018-07-19T11:46:20.988Z,33.65
2018-07-19T11:47:21.182Z,33.95
2018-07-19T11:48:21.390Z,34.63
2018-07-19T11:49:21.612Z,34.53
2018-07-19T11:50:21.835Z,34.55
2018-07-19T11:51:22.027Z,32.60
2018-07-19T11:52:22.246Z,32.99
2018-07-19T11:53:22.454Z,33.67
2018-07-19T11:54:22.661Z,32.60
2018-07-19T11:55:22.861Z,34.95
2018-07-19T11:56:23.083Z,33.01
2018-07-19T11:58:54.926Z,32.89
2018-07-19T11:59:55.107Z,33.67
2018-07-19T12:00:55.329Z,33.78
2018-07-19T12:01:55.532Z,32.11
2018-07-19T12:02:55.744Z,32.03
2018-07-19T12:05:27.915Z,33.04
2018-07-19T12:06:28.098Z,31.96
2018-07-19T12:07:28.319Z,31.37
2018-07-19T12:08:28.521Z,32.82
2018-07-19T12:09:28.744Z,31.95
2018-07-19T12:10:28.936Z,31.76
2018-07-19T12:11:29.151Z,31.57
2018-07-19T12:12:29.366Z,31.28
2018-07-19T12:13:29.563Z,31.17
2018-07-19T12:14:29.759Z,31.63
2018-07-19T12:15:30.059Z,31.82
2018-07-19T12:16:30.157Z,31.93
2018-07-19T12:17:30.376Z,31.34
2018-07-19T12:18:30.582Z,31.45
2018-07-19T12:19:30.774Z,31.17
2018-07-19T12:20:30.973Z,31.46
2018-07-19T12:21:31.172Z,31.32
2018-07-19T12:22:31.388Z,34.25
2018-07-19T12:23:31.583Z,31.13
2018-07-19T12:24:31.781Z,32.07
2018-07-19T12:25:31.995Z,31.68
2018-07-19T12:26:32.209Z,31.79
2018-07-19T12:27:32.421Z,32.20
2018-07-19T12:28:32.624Z,31.79
2018-07-19T12:29:32.823Z,32.67
2018-07-19T12:30:33.032Z,31.41
2018-07-19T12:31:33.228Z,31.63
2018-07-19T12:32:33.435Z,31.21
2018-07-19T12:33:33.637Z,32.87
2018-07-19T12:34:33.870Z,32.47
2018-07-19T12:35:34.074Z,32.76
2018-07-19T12:36:34.267Z,33.54
2018-07-19T12:37:34.543Z,32.20
2018-07-19T12:38:34.745Z,31.60
2018-07-19T12:39:34.957Z,32.10
2018-07-19T12:40:35.183Z,32.97
2018-07-19T12:41:35.397Z,34.05
2018-07-19T12:42:35.645Z,33.09
2018-07-19T12:43:35.814Z,32.91
2018-07-19T12:44:36.016Z,32.29
2018-07-19T12:45:36.226Z,32.89
2018-07-19T12:46:36.429Z,32.91
2018-07-19T12:47:36.616Z,32.89
2018-07-19T12:48:36.838Z,32.29
2018-07-19T12:49:37.034Z,33.17
2018-07-19T12:50:37.241Z,32.68
2018-07-19T12:51:37.460Z,33.28
2018-07-19T12:52:37.668Z,33.77
2018-07-19T12:53:37.859Z,33.49
2018-07-19T12:54:38.068Z,32.24
2018-07-19T12:55:38.273Z,30.67
2018-07-19T12:56:38.472Z,29.52
2018-07-19T12:57:38.695Z,31.93
2018-07-19T12:58:38.923Z,32.13